createdAt,value
2017-10-10T07:59:10.249Z,983.30
2017-10-10T08:32:50.093Z,983.38
2017-10-10T08:49:27.552Z,983.46
2017-10-10T12:17:01.438Z,983.30
2017-10-10T12:17:58.911Z,983.29
2017-10-10T12:24:22.915Z,983.31
2017-10-10T12:25:30.216Z,983.27
2017-10-10T12:29:38.581Z,983.22
2017-10-10T12:30:36.907Z,983.26
2017-10-10T12:31:36.878Z,983.23
2017-10-10T12:44:06.144Z,983.17
2017-10-10T12:48:48.225Z,983.13
2017-10-10T12:51:38.362Z,983.13
2017-10-10T12:54:25.698Z,983.20
2017-10-10T12:55:20.729Z,983.20
2017-10-10T12:56:21.256Z,983.24
2017-10-10T12:57:30.043Z,983.25
2017-10-10T12:59:52.880Z,983.29
2017-10-10T13:00:52.851Z,983.29
2017-10-10T13:04:27.271Z,983.26
2017-10-10T13:07:21.206Z,983.27
2017-10-10T13:08:20.476Z,983.25
2017-10-10T13:09:20.454Z,983.25
2017-10-10T13:10:20.396Z,983.22
2017-10-10T13:11:21.154Z,983.26
2017-10-10T13:12:31.360Z,983.29
2017-10-10T13:13:21.893Z,983.30
2017-10-10T13:14:20.232Z,983.27
2017-10-10T13:15:21.230Z,983.27
2017-10-10T13:16:20.749Z,983.29
2017-10-10T13:17:20.683Z,983.27
2017-10-10T13:18:21.232Z,983.25
2017-10-10T13:19:20.715Z,983.27
2017-10-10T13:20:20.046Z,983.27
2017-10-10T13:21:29.234Z,983.25
2017-10-10T13:23:28.664Z,983.27
2017-10-10T13:24:14.833Z,983.28
2017-10-10T13:27:38.015Z,983.34
2017-10-10T13:28:36.948Z,983.38
2017-10-10T13:29:37.725Z,983.36
2017-10-10T13:30:36.837Z,983.33
2017-10-10T13:31:37.298Z,983.40
2017-10-10T13:32:37.826Z,983.43
2017-10-10T13:33:37.688Z,983.38
2017-10-10T13:34:37.692Z,983.34
2017-10-10T13:35:36.678Z,983.40
2017-10-10T13:36:36.653Z,983.40
2017-10-10T13:37:37.573Z,983.40
2017-10-10T13:38:37.057Z,983.41
2017-10-10T13:39:36.377Z,983.42
2017-10-10T13:40:36.137Z,983.38
2017-10-10T13:41:36.126Z,983.36
2017-10-10T13:42:35.916Z,983.36
2017-10-10T13:43:35.979Z,983.37
2017-10-10T13:44:35.939Z,983.36
2017-10-10T13:45:35.857Z,983.35
2017-10-10T13:46:35.807Z,983.40
2017-10-10T13:47:35.786Z,983.38
2017-10-10T13:48:35.715Z,983.41
2017-10-10T13:49:35.721Z,983.38
2017-10-10T13:50:35.655Z,983.30
2017-10-10T13:51:35.652Z,983.32
2017-10-10T13:52:35.625Z,983.30
2017-10-10T13:53:35.552Z,983.30
2017-10-10T13:54:35.502Z,983.33
2017-10-10T13:55:35.529Z,983.31
2017-10-10T13:56:35.470Z,983.33
2017-10-10T13:57:35.447Z,983.31
2017-10-10T13:58:35.372Z,983.29
2017-10-10T13:59:35.307Z,983.35
2017-10-10T14:00:35.271Z,983.32
2017-10-10T14:01:35.307Z,983.31
2017-10-10T14:02:35.328Z,983.36
2017-10-10T14:03:35.263Z,983.30
2017-10-10T14:04:35.192Z,983.30
2017-10-10T14:05:35.090Z,983.36
2017-10-10T14:06:35.100Z,983.29
2017-10-10T14:07:35.776Z,983.32
2017-10-10T14:08:34.982Z,983.32
2017-10-10T14:09:34.950Z,983.27
2017-10-10T14:10:34.905Z,983.27
2017-10-10T14:11:34.935Z,983.31
2017-10-10T14:12:34.837Z,983.20
2017-10-10T14:13:34.846Z,983.26
2017-10-10T14:14:34.796Z,983.26
2017-10-10T14:15:34.816Z,983.25
2017-10-10T14:16:34.713Z,983.28
2017-10-10T14:17:34.676Z,983.33
2017-10-10T14:18:34.667Z,983.32
2017-10-10T14:19:34.579Z,983.36
2017-10-10T14:20:34.668Z,983.35
2017-10-10T14:21:34.542Z,983.31
2017-10-10T14:22:34.473Z,983.34
2017-10-10T14:23:34.521Z,983.36
2017-10-10T14:24:34.436Z,983.34
2017-10-10T14:25:34.435Z,983.33
2017-10-10T14:26:34.419Z,983.34
2017-10-10T14:27:34.309Z,983.27
2017-10-10T14:28:34.280Z,983.30
2017-10-10T14:29:34.267Z,983.31
2017-10-10T14:30:34.250Z,983.31
2017-10-10T14:31:34.178Z,983.35
2017-10-10T14:32:34.125Z,983.33
2017-10-10T14:33:34.078Z,983.43
2017-10-10T14:34:34.057Z,983.44
2017-10-10T14:35:34.097Z,983.47
2017-10-10T14:36:34.021Z,983.49
2017-10-10T14:37:33.979Z,983.50
2017-10-10T14:38:33.909Z,983.52
2017-10-10T14:39:33.970Z,983.54
2017-10-10T14:40:33.913Z,983.52
2017-10-10T14:41:33.897Z,983.55
2017-10-10T14:42:33.801Z,983.56
2017-10-10T14:43:33.774Z,983.60
2017-10-10T14:44:33.729Z,983.64
2017-10-10T14:45:33.720Z,983.60
2017-10-10T14:46:33.659Z,983.60
2017-10-10T14:47:33.591Z,983.56
2017-10-10T14:48:33.626Z,983.59
2017-10-10T14:49:33.602Z,983.63
2017-10-10T14:50:33.465Z,983.61
2017-10-10T14:51:33.503Z,983.64
2017-10-10T14:52:33.418Z,983.63
2017-10-10T14:53:33.385Z,983.59
2017-10-10T14:54:33.416Z,983.62
2017-10-10T14:55:33.311Z,983.59
2017-10-10T14:56:33.284Z,983.60
2017-10-10T14:57:33.212Z,983.59
2017-10-10T14:58:33.179Z,983.57
2017-10-10T14:59:33.190Z,983.63
2017-10-10T15:00:33.107Z,983.61
2017-10-10T15:01:33.086Z,983.62
2017-10-10T15:02:33.095Z,983.64
2017-10-10T15:03:32.994Z,983.58
2017-10-10T15:04:33.101Z,983.57
2017-10-10T15:05:32.949Z,983.57
2017-10-10T15:06:32.926Z,983.54
2017-10-10T15:07:32.859Z,983.58
2017-10-10T15:08:32.822Z,983.54
2017-10-10T15:09:32.859Z,983.56
2017-10-10T15:10:32.767Z,983.60
2017-10-10T15:11:32.746Z,983.55
2017-10-10T15:12:32.673Z,983.55
2017-10-10T15:13:32.670Z,983.64
2017-10-10T15:14:32.611Z,983.62
2017-10-10T15:15:32.616Z,983.70
2017-10-10T15:16:32.552Z,983.69
2017-10-10T15:17:32.487Z,983.68
2017-10-10T15:18:32.466Z,983.65
2017-10-10T15:19:32.428Z,983.63
2017-10-10T15:20:32.399Z,983.66
2017-10-10T15:21:32.382Z,983.66
2017-10-10T15:22:32.343Z,983.64
2017-10-10T15:23:32.272Z,983.63
2017-10-10T15:24:32.227Z,983.66
2017-10-10T15:25:32.208Z,983.68
2017-10-10T15:26:32.177Z,983.69
2017-10-10T15:27:32.146Z,983.64
2017-10-10T15:28:32.109Z,983.64
2017-10-10T15:29:32.110Z,983.65
2017-10-10T15:30:32.009Z,983.71
2017-10-10T15:31:31.997Z,983.66
2017-10-10T15:32:31.928Z,983.64
2017-10-10T15:33:31.906Z,983.65
2017-10-10T15:34:31.911Z,983.61
2017-10-10T15:35:31.835Z,983.61
2017-10-10T15:36:31.902Z,983.59
2017-10-10T15:37:41.450Z,983.59
